Hlavní strana
METAR-TAF:

METAR-TAF

Letiště :

Kittilä, Finsko

zeměpisná šířka: 67-42N, zeměpisná délka: 024-51E, výška: 196 m

Aktuální stav počasí

Zpráva byla vytvořena před 25 minutami, v 00:50 UTC
Jihojihovýchodní vítr 5 kt
Teplota -2°C
Vlhkost vzduchu 93%
Tlak 1011 hPa
Viditelnost 10 km a více
Zataženo ve výšce 900 ft
slabé sněžení

METAR: EFKT 180050Z AUTO 16005KT 9999 -SN OVC009 M02/M03 Q1011

Čas: 04:15 (01:15 UTC)

Předpověď počasí

Zpráva byla vytvořena před 16 hodinami a 40 minutami, v 08:35 UTC
Předpověď platná od 17 v 09 UTC do 17 v 12 UTC
Jihojihozápadní vítr 4 kt
Viditelnost 10 km a více
Zataženo ve výšce 600 ft
Dočasný
od 17 v 09 UTC do 17 v 12 UTC
Viditelnost: 7000 m
Zataženo ve výšce 400 ft
slabé sněžení

TAF: EFKT 170835Z 1709/1712 21004KT 9999 OVC006 TEMPO 1709/1712 7000 -SN OVC004

Stav a předpovědi počasí z více než 4 000 letišť (zprávy METAR a TAF).

Červené a žluté tečky na mapě představují dostupné meteorologické stanice.

Když kurzor umístíte na tečku, zobrazí se název stanice.

Pak kliknutím zobrazíte stav a předpověď počasí.

Chcete-li změnit mapu, kliknutím na zelené tlačítko se znaménkem +mapu přiblížíte, kliknutím na zelené tlačítko se znaménkem – mapu oddálíte a kliknutím na zelené šipky přejdete na sousední mapy.


METAR-TAF: